Time;durP1;ratioP1;P1;durP2;ratioP2;P2;SDS_P1;SDS_P2;PMS_P1;PMS_P2;Temp;Humidity;BMP_temperature;BMP_pressure;BME280_temperature;BME280_humidity;BME280_pressure;Samples;Min_cycle;Max_cycle;Signal;HPM_P1;HPM_P2
2021/06/28 00:00:56;;;;;;;;;;;;;;;25.67;42.92;101273.63;4944694;28;97656;-75
2021/06/28 00:03:24;;;;;;;;;;;;;;;25.75;42.90;101273.81;4952651;28;97223;-75
2021/06/28 00:05:51;;;;;;;;;;;;;;;25.59;43.17;101271.66;4953604;28;96817;-75
2021/06/28 00:08:17;;;;;;;;;;;;;;;25.71;43.03;101264.25;4937193;28;98904;-75
2021/06/28 00:10:43;;;;;;;;;;;;;;;25.64;43.02;101272.09;4943497;28;99050;-75
2021/06/28 00:13:10;;;;;;;;;;;;;;;25.67;43.03;101271.78;4954710;28;97707;-75
2021/06/28 00:15:43;;;;;;;;;;;;;;;25.87;42.86;101269.97;4948489;28;98553;-75
2021/06/28 00:18:11;;;;;;;;;;;;;;;25.74;42.53;101256.69;4949542;28;98900;-75
2021/06/28 00:20:39;;;;;;;;;;;;;;;25.72;42.29;101266.84;4945529;28;98804;-74
2021/06/28 00:23:05;;;;;;;;;;;;;;;25.58;42.86;101267.22;4946327;28;96792;-75
2021/06/28 00:25:32;;;;;;;;;;;;;;;25.65;42.62;101264.81;4955318;28;96841;-75
2021/06/28 00:27:58;;;;;;;;;;;;;;;25.83;42.76;101267.69;4952371;28;98407;-74
2021/06/28 00:30:25;;;;;;;;;;;;;;;25.74;42.81;101275.66;4946362;28;98940;-74
2021/06/28 00:32:52;;;;;;;;;;;;;;;25.58;43.14;101269.94;4952841;28;96866;-75
2021/06/28 00:35:20;;;;;;;;;;;;;;;25.62;42.75;101271.34;4956404;28;96871;-75
2021/06/28 00:37:48;;;;;;;;;;;;;;;25.64;42.63;101272.09;4947369;28;98886;-75
2021/06/28 00:40:16;;;;;;;;;;;;;;;25.86;41.65;101267.44;4951809;28;99142;-75
2021/06/28 00:42:42;;;;;;;;;;;;;;;25.59;42.28;101268.94;4955295;28;96827;-75
2021/06/28 00:45:15;;;;;;;;;;;;;;;25.37;43.08;101269.13;4945147;28;97543;-75
2021/06/28 00:47:41;;;;;;;;;;;;;;;25.30;43.96;101274.22;4950450;28;99060;-75
2021/06/28 00:50:08;;;;;;;;;;;;;;;25.40;43.43;101261.56;4954089;28;99400;-74
2021/06/28 00:52:34;;;;;;;;;;;;;;;25.47;43.53;101272.69;4952649;28;98126;-75
2021/06/28 00:55:02;;;;;;;;;;;;;;;25.34;43.89;101264.81;4961813;28;97189;-75
2021/06/28 00:57:28;;;;;;;;;;;;;;;25.48;43.79;101265.44;4966345;28;99521;-76
2021/06/28 00:59:55;;;;;;;;;;;;;;;25.49;43.62;101269.84;4955478;28;99288;-75
2021/06/28 01:02:21;;;;;;;;;;;;;;;25.23;44.20;101264.06;4962795;28;96882;-75
2021/06/28 01:04:47;;;;;;;;;;;;;;;25.39;44.24;101264.44;4971192;28;97062;-76
2021/06/28 01:07:13;;;;;;;;;;;;;;;25.49;44.04;101265.31;4968597;28;99197;-74
2021/06/28 01:09:40;;;;;;;;;;;;;;;25.33;44.46;101275.81;4968550;28;97748;-73
2021/06/28 01:12:08;;;;;;;;;;;;;;;25.11;44.57;101270.56;4961621;28;97603;-73
2021/06/28 01:14:34;;;;;;;;;;;;;;;25.30;43.96;101262.53;4959601;28;97125;-74
2021/06/28 01:17:01;;;;;;;;;;;;;;;25.17;43.59;101267.31;4959975;28;99885;-75
2021/06/28 01:19:30;;;;;;;;;;;;;;;25.33;43.00;101265.84;4954957;28;97752;-74
2021/06/28 01:21:58;;;;;;;;;;;;;;;25.53;42.48;101268.59;4951691;28;96884;-74
2021/06/28 01:24:26;;;;;;;;;;;;;;;25.20;43.68;101269.78;4951373;28;97690;-75
2021/06/28 01:26:53;;;;;;;;;;;;;;;25.27;43.54;101266.34;4948474;28;99195;-75
2021/06/28 01:29:19;;;;;;;;;;;;;;;25.21;43.86;101263.34;4963138;28;98044;-75
2021/06/28 01:31:46;;;;;;;;;;;;;;;25.18;44.25;101269.03;4950943;28;96930;-75
2021/06/28 01:34:12;;;;;;;;;;;;;;;24.96;45.38;101262.81;4942020;28;97761;-74
2021/06/28 01:36:39;;;;;;;;;;;;;;;24.96;44.93;101262.81;4951641;28;99084;-74
2021/06/28 01:39:05;;;;;;;;;;;;;;;24.89;45.30;101268.84;4951917;28;97824;-74
2021/06/28 01:41:33;;;;;;;;;;;;;;;25.15;44.54;101272.84;4940490;28;96836;-75
2021/06/28 01:43:59;;;;;;;;;;;;;;;25.04;45.40;101272.97;4945270;28;97101;-73
2021/06/28 01:46:25;;;;;;;;;;;;;;;25.08;45.13;101270.81;4947786;28;98643;-74
2021/06/28 01:48:51;;;;;;;;;;;;;;;25.12;44.63;101267.75;4955840;28;97967;-73
2021/06/28 01:51:17;;;;;;;;;;;;;;;25.18;44.76;101271.75;4941440;28;98780;-76
2021/06/28 01:53:44;;;;;;;;;;;;;;;25.08;44.64;101266.28;4943578;28;97125;-76
2021/06/28 01:56:11;;;;;;;;;;;;;;;25.20;44.28;101272.47;4949876;28;98899;-73
2021/06/28 01:58:38;;;;;;;;;;;;;;;24.96;44.61;101267.34;4951042;28;98408;-75
2021/06/28 02:01:05;;;;;;;;;;;;;;;24.88;45.49;101272.53;4947513;28;97083;-74
2021/06/28 02:03:35;;;;;;;;;;;;;;;24.84;45.45;101268.41;4944548;28;97740;-75
2021/06/28 02:06:02;;;;;;;;;;;;;;;24.74;45.76;101267.50;4953444;28;99507;-74
2021/06/28 02:08:29;;;;;;;;;;;;;;;25.02;44.70;101270.38;4953060;28;99103;-73
2021/06/28 02:10:56;;;;;;;;;;;;;;;24.80;45.47;101264.25;4953148;28;96833;-75
2021/06/28 02:13:23;;;;;;;;;;;;;;;24.85;45.82;101267.41;4951043;28;97103;-76
2021/06/28 02:15:52;;;;;;;;;;;;;;;24.66;46.12;101260.06;4946628;28;99019;-76
2021/06/28 02:18:18;;;;;;;;;;;;;;;24.57;46.29;101260.84;4946183;28;99216;-76
2021/06/28 02:20:45;;;;;;;;;;;;;;;24.49;46.72;101258.78;4947846;28;98195;-75
2021/06/28 02:23:25;;;;;;;;;;;;;;;24.48;46.41;101261.66;4949306;28;98520;-75
2021/06/28 02:25:54;;;;;;;;;;;;;;;24.49;46.68;101257.94;4952573;28;99349;-76
2021/06/28 02:28:20;;;;;;;;;;;;;;;24.40;46.84;101264.13;4947070;28;99068;-74
2021/06/28 02:30:47;;;;;;;;;;;;;;;24.38;47.18;101258.84;4949462;28;96911;-74
2021/06/28 02:33:14;;;;;;;;;;;;;;;24.20;47.09;101258.59;4947066;28;97550;-74
2021/06/28 02:35:41;;;;;;;;;;;;;;;24.22;46.99;101255.72;4948514;28;99402;-74
2021/06/28 02:38:07;;;;;;;;;;;;;;;24.26;46.60;101250.94;4937795;28;99150;-74
2021/06/28 02:40:33;;;;;;;;;;;;;;;24.44;46.41;101243.97;4943381;28;97371;-75
2021/06/28 02:43:00;;;;;;;;;;;;;;;24.35;46.01;101255.56;4947408;28;97039;-74
2021/06/28 02:45:26;;;;;;;;;;;;;;;24.11;47.57;101253.06;4949003;28;98932;-75
2021/06/28 02:47:52;;;;;;;;;;;;;;;24.30;46.94;101250.53;4952625;28;98929;-76
2021/06/28 02:50:20;;;;;;;;;;;;;;;24.15;47.54;101252.69;4944051;28;97100;-75
2021/06/28 02:52:47;;;;;;;;;;;;;;;24.15;47.62;101252.69;4946037;28;97441;-73
2021/06/28 02:55:13;;;;;;;;;;;;;;;24.13;47.03;101241.16;4963616;28;97899;-74
2021/06/28 02:57:40;;;;;;;;;;;;;;;24.06;47.41;101234.56;4965937;28;97638;-73
2021/06/28 03:00:08;;;;;;;;;;;;;;;24.15;46.72;101233.78;4963735;28;97948;-74
2021/06/28 03:02:34;;;;;;;;;;;;;;;24.19;46.65;101235.25;4967135;28;97892;-76
2021/06/28 03:05:00;;;;;;;;;;;;;;;24.39;46.22;101227.31;4968041;28;97977;-74
2021/06/28 03:07:28;;;;;;;;;;;;;;;24.64;45.15;101224.19;4967253;28;99236;-74
2021/06/28 03:09:55;;;;;;;;;;;;;;;24.57;45.58;101223.88;4965816;28;96524;-74
2021/06/28 03:12:21;;;;;;;;;;;;;;;24.37;45.99;101224.72;4953931;28;96897;-74
2021/06/28 03:14:47;;;;;;;;;;;;;;;24.29;45.95;101223.66;4944578;28;98828;-74
2021/06/28 03:17:13;;;;;;;;;;;;;;;24.56;45.44;101237.50;4948639;28;99068;-75
2021/06/28 03:19:40;;;;;;;;;;;;;;;24.89;44.85;101231.91;4940546;28;96912;-75
2021/06/28 03:22:06;;;;;;;;;;;;;;;24.30;46.29;101237.03;4949528;28;97099;-75
2021/06/28 03:24:34;;;;;;;;;;;;;;;24.36;46.70;101241.06;4939580;28;98072;-74
2021/06/28 03:27:00;;;;;;;;;;;;;;;24.17;47.30;101241.72;4946063;28;98919;-74
2021/06/28 03:29:27;;;;;;;;;;;;;;;24.19;47.65;101246.06;4942189;28;96781;-75
2021/06/28 03:31:53;;;;;;;;;;;;;;;24.37;47.19;101242.78;4953438;28;98407;-74
2021/06/28 03:34:19;;;;;;;;;;;;;;;24.40;46.95;101246.09;4955772;28;99984;-75
2021/06/28 03:36:45;;;;;;;;;;;;;;;24.63;46.21;101244.94;4947572;28;99130;-74
2021/06/28 03:39:12;;;;;;;;;;;;;;;24.52;46.07;101242.31;4953700;28;96892;-75
2021/06/28 03:41:40;;;;;;;;;;;;;;;24.71;45.58;101247.00;4942839;28;97554;-75
2021/06/28 03:44:06;;;;;;;;;;;;;;;24.47;46.20;101236.47;4952843;28;99285;-75
2021/06/28 03:46:33;;;;;;;;;;;;;;;24.77;45.91;101240.19;4946570;28;99197;-75
2021/06/28 03:48:59;;;;;;;;;;;;;;;24.69;46.09;101243.56;4951535;28;96865;-75
2021/06/28 03:51:25;;;;;;;;;;;;;;;24.79;45.41;101244.50;4950329;28;97280;-75
2021/06/28 03:53:52;;;;;;;;;;;;;;;24.59;45.98;101242.66;4939220;28;98923;-75
2021/06/28 03:56:19;;;;;;;;;;;;;;;24.70;46.17;101239.88;4938616;28;99056;-75
2021/06/28 03:58:46;;;;;;;;;;;;;;;25.12;44.96;101245.25;4954153;28;96916;-74
2021/06/28 04:01:13;;;;;;;;;;;;;;;25.23;44.46;101248.69;4946933;28;97123;-75
2021/06/28 04:03:39;;;;;;;;;;;;;;;25.44;43.58;101251.34;4947409;28;98928;-74
2021/06/28 04:06:07;;;;;;;;;;;;;;;25.52;43.12;101258.78;4950925;28;99291;-74
2021/06/28 04:08:33;;;;;;;;;;;;;;;25.51;42.96;101255.22;4956071;28;96842;-74
2021/06/28 04:11:00;;;;;;;;;;;;;;;25.62;42.47;101257.81;4945592;28;97483;-75
2021/06/28 04:13:27;;;;;;;;;;;;;;;25.74;41.90;101259.41;4949853;28;99321;-75
2021/06/28 04:15:54;;;;;;;;;;;;;;;26.06;41.41;101263.72;4949426;28;98875;-75
2021/06/28 04:18:21;;;;;;;;;;;;;;;26.27;40.95;101264.47;4956857;28;97492;-75
2021/06/28 04:20:47;;;;;;;;;;;;;;;26.00;41.14;101257.03;4951144;28;96945;-75
2021/06/28 04:23:14;;;;;;;;;;;;;;;25.83;41.34;101263.13;4946371;28;99543;-73
2021/06/28 04:25:40;;;;;;;;;;;;;;;25.95;41.67;101261.16;4941543;28;99184;-75
2021/06/28 04:28:06;;;;;;;;;;;;;;;26.08;41.88;101268.00;4942024;28;97842;-76
2021/06/28 04:30:33;;;;;;;;;;;;;;;26.09;41.77;101268.88;4952315;28;98350;-74
2021/06/28 04:33:01;;;;;;;;;;;;;;;26.18;42.38;101270.72;4955659;28;99242;-75
2021/06/28 04:35:27;;;;;;;;;;;;;;;26.45;41.63;101262.75;4948837;28;99180;-75
2021/06/28 04:37:55;;;;;;;;;;;;;;;26.63;40.24;101268.31;4953389;28;97302;-75
2021/06/28 04:40:23;;;;;;;;;;;;;;;26.52;40.32;101271.16;4955418;28;97697;-75
2021/06/28 04:42:50;;;;;;;;;;;;;;;26.38;39.66;101275.19;4948622;28;98220;-75
2021/06/28 04:45:17;;;;;;;;;;;;;;;26.64;39.14;101269.16;4951525;28;98815;-75
2021/06/28 04:47:43;;;;;;;;;;;;;;;26.59;38.64;101273.13;4950665;28;96983;-75
2021/06/28 04:50:12;;;;;;;;;;;;;;;26.94;37.93;101268.97;4953948;28;96853;-75
2021/06/28 04:52:39;;;;;;;;;;;;;;;27.27;36.82;101268.41;4946792;28;99272;-76
2021/06/28 04:55:07;;;;;;;;;;;;;;;27.30;36.75;101273.56;4944036;28;98860;-75
2021/06/28 04:57:34;;;;;;;;;;;;;;;27.29;36.49;101266.41;4947149;28;97025;-75
2021/06/28 05:00:00;;;;;;;;;;;;;;;27.38;36.37;101267.34;4952335;28;98616;-75
2021/06/28 05:02:26;;;;;;;;;;;;;;;27.45;36.08;101273.03;4942047;28;101865;-74
2021/06/28 05:04:53;;;;;;;;;;;;;;;27.77;35.51;101277.03;4951928;28;98798;-76
2021/06/28 05:07:20;;;;;;;;;;;;;;;27.72;35.05;101275.78;4951880;28;97211;-73
2021/06/28 05:09:47;;;;;;;;;;;;;;;27.78;34.93;101277.88;4946028;28;96928;-75
2021/06/28 05:12:14;;;;;;;;;;;;;;;27.71;34.76;101279.50;4945617;28;98921;-73
2021/06/28 05:14:40;;;;;;;;;;;;;;;27.89;34.54;101274.09;4947833;28;98757;-73
2021/06/28 05:17:07;;;;;;;;;;;;;;;27.96;34.14;101272.50;4948919;28;97090;-74
2021/06/28 05:19:33;;;;;;;;;;;;;;;28.08;33.85;101260.38;4948725;28;98306;-75
2021/06/28 05:21:59;;;;;;;;;;;;;;;28.19;33.66;101259.31;4944772;28;98901;-74
2021/06/28 05:24:27;;;;;;;;;;;;;;;28.30;33.31;101259.06;4946182;28;99694;-75
2021/06/28 05:26:53;;;;;;;;;;;;;;;28.51;33.33;101257.72;4947925;28;96742;-75
2021/06/28 05:29:20;;;;;;;;;;;;;;;28.78;32.90;101251.31;4948743;28;96912;-75
2021/06/28 05:31:46;;;;;;;;;;;;;;;28.82;33.31;101260.88;4952861;28;98880;-76
2021/06/28 05:34:12;;;;;;;;;;;;;;;28.68;33.37;101239.69;4946002;28;98936;-76
2021/06/28 05:36:39;;;;;;;;;;;;;;;28.72;33.24;101234.75;4954249;28;97300;-75
2021/06/28 05:39:05;;;;;;;;;;;;;;;29.00;33.21;101232.75;4938041;28;96879;-76
2021/06/28 05:41:33;;;;;;;;;;;;;;;28.89;32.78;101236.59;4953398;28;98854;-76
2021/06/28 05:43:59;;;;;;;;;;;;;;;28.79;32.55;101236.72;4943721;28;97741;-75
2021/06/28 05:46:26;;;;;;;;;;;;;;;28.54;32.81;101237.53;4946644;28;97679;-75
2021/06/28 05:48:52;;;;;;;;;;;;;;;28.45;32.94;101247.50;4949207;28;97113;-76
2021/06/28 05:51:19;;;;;;;;;;;;;;;28.29;33.53;101244.63;4946940;28;98932;-76
2021/06/28 05:53:45;;;;;;;;;;;;;;;28.21;33.68;101239.16;4948552;28;99244;-76
2021/06/28 05:56:12;;;;;;;;;;;;;;;28.49;33.14;101242.56;4944893;28;97101;-76
2021/06/28 05:58:40;;;;;;;;;;;;;;;28.71;33.15;101238.50;4946538;28;97105;-75
2021/06/28 06:01:06;;;;;;;;;;;;;;;29.27;32.25;101240.72;4938897;28;98857;-76
2021/06/28 06:03:33;;;;;;;;;;;;;;;29.39;32.06;101250.31;4941822;28;98994;-77
2021/06/28 06:05:59;;;;;;;;;;;;;;;29.39;31.92;101254.91;4951093;28;97295;-75
2021/06/28 06:08:26;;;;;;;;;;;;;;;29.52;31.73;101261.59;4952254;28;96967;-76
2021/06/28 06:10:52;;;;;;;;;;;;;;;29.73;31.24;101257.59;4951576;28;98934;-75
2021/06/28 06:13:19;;;;;;;;;;;;;;;29.40;31.50;101252.03;4946049;28;98881;-75
2021/06/28 06:15:47;;;;;;;;;;;;;;;29.73;31.35;101257.59;4950033;28;96838;-75
2021/06/28 06:18:13;;;;;;;;;;;;;;;29.50;31.27;101255.47;4936660;28;96892;-76
2021/06/28 06:20:40;;;;;;;;;;;;;;;29.70;31.01;101250.59;4952300;28;97749;-76
2021/06/28 06:23:06;;;;;;;;;;;;;;;29.73;30.83;101260.31;4954429;28;98966;-76
2021/06/28 06:25:33;;;;;;;;;;;;;;;29.84;30.77;101254.53;4953766;28;96879;-76
2021/06/28 06:27:59;;;;;;;;;;;;;;;30.14;30.33;101255.81;4949755;28;97074;-75
2021/06/28 06:30:26;;;;;;;;;;;;;;;30.23;29.96;101254.78;4953664;28;98740;-73
2021/06/28 06:32:53;;;;;;;;;;;;;;;30.42;29.87;101252.59;4945632;28;98943;-74
2021/06/28 06:35:21;;;;;;;;;;;;;;;30.41;29.93;101252.75;4939826;28;97398;-75
2021/06/28 06:37:48;;;;;;;;;;;;;;;30.23;29.93;101263.81;4945446;28;97055;-75
2021/06/28 06:40:14;;;;;;;;;;;;;;;30.42;29.79;101260.75;4938759;28;99186;-75
2021/06/28 06:42:41;;;;;;;;;;;;;;;31.02;28.96;101263.09;4935016;28;98855;-76
2021/06/28 06:45:08;;;;;;;;;;;;;;;31.52;28.10;101265.50;4945246;28;96777;-77
2021/06/28 06:47:34;;;;;;;;;;;;;;;31.52;28.15;101264.63;4953649;28;97215;-74
2021/06/28 06:50:02;;;;;;;;;;;;;;;31.19;28.36;101262.03;4941357;28;99172;-76
2021/06/28 06:52:28;;;;;;;;;;;;;;;31.44;28.28;101273.72;4948406;28;98919;-75
2021/06/28 06:54:55;;;;;;;;;;;;;;;31.21;28.59;101262.72;4941039;28;99686;-75
2021/06/28 06:57:21;;;;;;;;;;;;;;;31.32;28.98;101268.81;4933436;28;97488;-74
2021/06/28 06:59:47;;;;;;;;;;;;;;;31.12;28.88;101269.22;4947061;28;98858;-75
2021/06/28 07:02:14;;;;;;;;;;;;;;;31.30;28.95;101270.91;4942566;28;99024;-75
2021/06/28 07:04:40;;;;;;;;;;;;;;;31.46;28.57;101282.59;4950224;28;96834;-75
2021/06/28 07:07:09;;;;;;;;;;;;;;;31.76;28.27;101278.22;4951319;28;96799;-75
2021/06/28 07:09:36;;;;;;;;;;;;;;;31.52;28.61;101267.38;4942622;28;98935;-75
2021/06/28 07:12:02;;;;;;;;;;;;;;;31.62;28.24;101276.25;4946554;28;100232;-76
2021/06/28 07:14:31;;;;;;;;;;;;;;;31.40;28.46;101274.25;4948234;28;97224;-75
2021/06/28 07:16:58;;;;;;;;;;;;;;;31.40;28.92;101280.56;4953463;28;96879;-76
2021/06/28 07:19:24;;;;;;;;;;;;;;;31.53;28.34;101278.13;4943055;28;100781;-74
2021/06/28 07:21:50;;;;;;;;;;;;;;;31.49;28.12;101278.66;4948795;28;98819;-76
2021/06/28 07:24:18;;;;;;;;;;;;;;;31.63;28.19;101281.53;4939501;28;98942;-74
2021/06/28 07:26:45;;;;;;;;;;;;;;;31.98;27.31;101290.19;4940559;28;98167;-75
2021/06/28 07:29:11;;;;;;;;;;;;;;;32.28;27.12;101281.16;4949052;28;99326;-74
2021/06/28 07:31:37;;;;;;;;;;;;;;;32.45;27.02;101279.13;4939189;28;99150;-74
2021/06/28 07:34:05;;;;;;;;;;;;;;;32.28;27.12;101277.56;4945691;28;99757;-74
2021/06/28 07:36:32;;;;;;;;;;;;;;;32.25;27.46;101277.91;4943431;28;98512;-76
2021/06/28 07:39:02;;;;;;;;;;;;;;;32.44;27.08;101278.28;4950361;28;98893;-76
2021/06/28 07:41:30;;;;;;;;;;;;;;;31.89;27.40;101270.28;4939902;28;98909;-75
2021/06/28 07:43:56;;;;;;;;;;;;;;;32.27;27.09;101273.13;4949506;28;97441;-76
2021/06/28 07:46:23;;;;;;;;;;;;;;;32.48;26.55;101272.44;4948621;28;96943;-75
2021/06/28 07:48:49;;;;;;;;;;;;;;;33.23;25.09;101265.03;4954338;28;99133;-75
2021/06/28 07:51:15;;;;;;;;;;;;;;;33.47;24.50;101263.91;4941119;28;99120;-75
2021/06/28 07:53:42;;;;;;;;;;;;;;;33.39;24.89;101270.31;4949476;28;98225;-75
2021/06/28 07:56:18;;;;;;;;;;;;;;;33.40;25.25;101268.44;4947624;28;96937;-75
2021/06/28 07:58:47;;;;;;;;;;;;;;;32.72;25.00;101262.16;4941075;28;99339;-75
2021/06/28 08:01:13;;;;;;;;;;;;;;;33.09;24.59;101258.50;4948703;28;99105;-74
2021/06/28 08:03:44;;;;;;;;;;;;;;;33.34;24.30;101253.63;4935272;28;100131;-76
2021/06/28 08:06:10;;;;;;;;;;;;;;;33.11;24.79;101261.03;4947435;28;98504;-76
2021/06/28 08:08:36;;;;;;;;;;;;;;;33.14;24.87;101258.78;4954358;28;99297;-75
2021/06/28 08:11:03;;;;;;;;;;;;;;;33.11;24.60;101261.91;4951375;28;97637;-75
2021/06/28 08:13:29;;;;;;;;;;;;;;;33.37;24.05;101266.06;4951874;28;97608;-74
2021/06/28 08:15:57;;;;;;;;;;;;;;;33.25;24.00;101260.22;4951978;28;98101;-75
2021/06/28 08:18:23;;;;;;;;;;;;;;;33.07;23.86;101252.38;4950452;28;98995;-74
2021/06/28 08:20:49;;;;;;;;;;;;;;;33.27;23.26;101247.22;4946060;28;99269;-76
2021/06/28 08:23:16;;;;;;;;;;;;;;;33.37;23.64;101246.91;4954564;28;97145;-76
2021/06/28 08:25:42;;;;;;;;;;;;;;;33.38;24.04;101254.06;4950095;28;97279;-75
2021/06/28 08:28:10;;;;;;;;;;;;;;;33.66;23.90;101255.06;4953199;28;98993;-75
2021/06/28 08:30:36;;;;;;;;;;;;;;;33.75;23.26;101256.66;4944510;28;97880;-75
2021/06/28 08:33:07;;;;;;;;;;;;;;;33.49;23.24;101257.16;4952401;28;96925;-75
2021/06/28 08:35:33;;;;;;;;;;;;;;;33.29;23.50;101256.06;4950661;28;97082;-75
2021/06/28 08:38:01;;;;;;;;;;;;;;;32.78;23.56;101258.66;4952586;28;98984;-75
2021/06/28 08:40:27;;;;;;;;;;;;;;;33.29;22.97;101256.06;4947344;28;99262;-75
2021/06/28 08:42:53;;;;;;;;;;;;;;;33.05;23.56;101259.91;4948500;28;96888;-75
2021/06/28 08:45:19;;;;;;;;;;;;;;;33.20;23.30;101252.59;4951515;28;96908;-77
2021/06/28 08:47:46;;;;;;;;;;;;;;;33.86;22.76;101258.06;4956362;28;101739;-76
2021/06/28 08:50:14;;;;;;;;;;;;;;;33.45;22.96;101249.53;4945926;28;98791;-76
2021/06/28 08:52:42;;;;;;;;;;;;;;;33.19;23.93;101250.88;4944585;28;96999;-76
2021/06/28 08:55:10;;;;;;;;;;;;;;;33.60;23.03;101253.09;4945854;28;96869;-76
2021/06/28 08:57:37;;;;;;;;;;;;;;;33.89;22.28;101263.16;4936216;28;99007;-74
2021/06/28 09:00:04;;;;;;;;;;;;;;;34.34;21.96;101254.56;4930322;28;99354;-76
2021/06/28 09:02:30;;;;;;;;;;;;;;;34.45;21.73;101252.34;4934300;28;99857;-75
2021/06/28 09:04:57;;;;;;;;;;;;;;;34.00;22.16;101254.44;4938568;28;97506;-75
2021/06/28 09:07:25;;;;;;;;;;;;;;;34.14;21.22;101250.75;4944479;28;98866;-74
2021/06/28 09:09:52;;;;;;;;;;;;;;;33.86;21.65;101256.19;4947335;28;99234;-75
2021/06/28 09:12:19;;;;;;;;;;;;;;;34.03;21.42;101254.03;4952230;28;98598;-76
2021/06/28 09:14:46;;;;;;;;;;;;;;;34.12;21.13;101252.03;4955698;28;96925;-74
2021/06/28 09:17:23;;;;;;;;;;;;;;;33.18;22.59;101251.88;4954800;28;98867;-74
2021/06/28 09:20:09;;;;;;;;;;;;;;;33.08;22.60;101253.22;4956476;28;98782;-74
2021/06/28 09:22:37;;;;;;;;;;;;;;;33.79;21.54;101248.94;4967225;28;97277;-77
2021/06/28 09:25:04;;;;;;;;;;;;;;;33.75;22.26;101253.09;4968023;28;97161;-76
2021/06/28 09:27:31;;;;;;;;;;;;;;;33.49;22.23;101251.69;4966465;28;97869;-75
2021/06/28 09:29:58;;;;;;;;;;;;;;;34.05;22.09;101256.59;4951591;28;98128;-76
2021/06/28 09:32:25;;;;;;;;;;;;;;;33.68;22.13;101254.84;4955111;28;97111;-76
2021/06/28 09:34:55;;;;;;;;;;;;;;;33.88;22.02;101251.34;4956298;28;96822;-75
2021/06/28 09:37:24;;;;;;;;;;;;;;;34.37;21.58;101247.84;4950333;28;98099;-74
2021/06/28 09:39:53;;;;;;;;;;;;;;;34.20;21.76;101243.66;4945962;28;98816;-75
2021/06/28 09:42:21;;;;;;;;;;;;;;;33.83;22.30;101239.25;4949709;28;97391;-75
2021/06/28 09:44:51;;;;;;;;;;;;;;;34.23;21.65;101249.63;4944702;28;98347;-74
2021/06/28 09:47:18;;;;;;;;;;;;;;;34.46;21.73;101243.09;4950447;28;97596;-75
2021/06/28 09:49:59;;;;;;;;;;;;;;;34.04;21.98;101241.19;4947197;28;99134;-75
2021/06/28 09:52:29;;;;;;;;;;;;;;;34.05;21.91;101245.63;4952081;28;96897;-75
2021/06/28 09:55:11;;;;;;;;;;;;;;;34.47;21.99;101242.00;4945397;28;98178;-74
2021/06/28 09:57:37;;;;;;;;;;;;;;;34.66;22.04;101242.16;4946443;28;98877;-75
2021/06/28 10:00:21;;;;;;;;;;;;;;;33.97;21.72;101236.47;4947811;28;98876;-75
2021/06/28 10:02:48;;;;;;;;;;;;;;;34.26;21.52;101237.44;4945423;28;96947;-75
2021/06/28 10:05:18;;;;;;;;;;;;;;;34.44;21.87;101239.69;4947573;28;97407;-75
2021/06/28 10:07:45;;;;;;;;;;;;;;;34.32;21.75;101232.00;4946162;28;99592;-74
2021/06/28 10:10:22;;;;;;;;;;;;;;;34.55;21.62;101230.91;4941715;28;97646;-74
2021/06/28 10:12:58;;;;;;;;;;;;;;;34.53;21.88;101227.53;4949265;28;96838;-74
2021/06/28 10:15:26;;;;;;;;;;;;;;;33.80;22.44;101220.47;4947388;28;97002;-74
2021/06/28 10:17:52;;;;;;;;;;;;;;;33.06;22.82;101216.97;4950143;28;98977;-74
2021/06/28 10:20:19;;;;;;;;;;;;;;;33.26;23.10;101229.06;4940410;28;100284;-75
2021/06/28 10:22:47;;;;;;;;;;;;;;;33.67;22.82;101223.91;4946182;28;96875;-74
2021/06/28 10:25:15;;;;;;;;;;;;;;;33.38;22.40;101213.84;4949013;28;98299;-73
2021/06/28 10:27:43;;;;;;;;;;;;;;;33.13;23.00;101213.28;4947770;28;99265;-73
2021/06/28 10:30:12;;;;;;;;;;;;;;;33.76;21.72;101213.66;4948599;28;98761;-75
2021/06/28 10:32:38;;;;;;;;;;;;;;;34.08;20.70;101207.66;4951092;28;97021;-74
2021/06/28 10:35:07;;;;;;;;;;;;;;;34.47;20.22;101196.22;4942109;28;96896;-74
2021/06/28 10:37:34;;;;;;;;;;;;;;;34.51;20.18;101202.19;4942144;28;97712;-76
2021/06/28 10:40:01;;;;;;;;;;;;;;;34.79;19.34;101200.28;4949407;28;98830;-74
2021/06/28 10:42:32;;;;;;;;;;;;;;;34.67;19.96;101201.84;4948085;28;97558;-74
2021/06/28 10:45:00;;;;;;;;;;;;;;;34.69;20.18;101199.75;4947303;28;97233;-74
2021/06/28 10:47:28;;;;;;;;;;;;;;;34.33;19.76;101192.53;4943895;28;98206;-74
2021/06/28 10:49:54;;;;;;;;;;;;;;;33.70;20.32;101187.00;4947675;28;97576;-74
2021/06/28 10:52:41;;;;;;;;;;;;;;;33.97;20.31;101189.03;4945472;28;96970;-74
2021/06/28 10:55:23;;;;;;;;;;;;;;;34.76;20.02;101182.31;4941729;28;97304;-74
2021/06/28 10:57:52;;;;;;;;;;;;;;;34.33;19.74;101178.81;4948447;28;99384;-74
2021/06/28 11:00:40;;;;;;;;;;;;;;;34.30;18.94;101179.22;4943819;28;98755;-75
2021/06/28 11:03:21;;;;;;;;;;;;;;;33.97;19.56;101172.56;4948203;28;96810;-75
2021/06/28 11:06:02;;;;;;;;;;;;;;;34.08;19.49;101171.19;4942502;28;97175;-75
2021/06/28 11:08:28;;;;;;;;;;;;;;;34.59;19.58;101180.06;4946330;28;99261;-75
2021/06/28 11:10:55;;;;;;;;;;;;;;;34.86;18.95;101179.19;4946113;28;99279;-76
2021/06/28 11:13:25;;;;;;;;;;;;;;;34.79;19.24;101178.31;4948574;28;97483;-76
2021/06/28 11:15:52;;;;;;;;;;;;;;;35.10;19.25;101170.47;4952426;28;97142;-75
2021/06/28 11:18:28;;;;;;;;;;;;;;;35.02;19.00;101187.13;4950233;28;99335;-74
2021/06/28 11:20:54;;;;;;;;;;;;;;;34.91;19.16;101182.22;4950881;28;98930;-76
2021/06/28 11:23:20;;;;;;;;;;;;;;;35.02;19.48;101180.78;4953901;28;96829;-76
2021/06/28 11:25:48;;;;;;;;;;;;;;;35.08;19.04;101172.56;4952135;28;97171;-74
2021/06/28 11:28:28;;;;;;;;;;;;;;;35.36;19.30;101174.41;4946794;28;98819;-76
2021/06/28 11:31:00;;;;;;;;;;;;;;;34.97;18.41;101184.13;4945639;28;99741;-75
2021/06/28 11:33:32;;;;;;;;;;;;;;;35.13;18.43;101170.03;4948071;28;97134;-75
2021/06/28 11:36:00;;;;;;;;;;;;;;;35.46;18.09;101169.34;4949478;28;98164;-76
2021/06/28 11:38:27;;;;;;;;;;;;;;;35.80;18.06;101172.00;4950765;28;98218;-75
2021/06/28 11:40:54;;;;;;;;;;;;;;;36.06;17.89;101170.34;4945017;28;97925;-75
2021/06/28 11:43:34;;;;;;;;;;;;;;;35.58;18.21;101179.53;4946892;28;98907;-76
2021/06/28 11:46:01;;;;;;;;;;;;;;;35.88;17.84;101174.56;4953833;28;97871;-75
2021/06/28 11:48:31;;;;;;;;;;;;;;;35.64;18.58;101164.13;4949420;28;99914;-75
2021/06/28 11:50:58;;;;;;;;;;;;;;;36.24;17.88;101165.06;4952965;28;99123;-76
2021/06/28 11:53:24;;;;;;;;;;;;;;;36.11;18.08;101170.53;4947079;28;98899;-76
2021/06/28 11:55:51;;;;;;;;;;;;;;;36.43;17.96;101164.22;4954993;28;96771;-76
2021/06/28 11:58:21;;;;;;;;;;;;;;;36.56;17.76;101166.94;4943284;28;99001;-75
2021/06/28 12:00:48;;;;;;;;;;;;;;;36.38;17.55;101165.91;4949422;28;98017;-77
2021/06/28 12:03:17;;;;;;;;;;;;;;;36.33;17.82;101159.16;4950311;28;97253;-75
2021/06/28 12:05:44;;;;;;;;;;;;;;;36.25;17.64;101159.38;4946291;28;97786;-75
2021/06/28 12:08:12;;;;;;;;;;;;;;;36.56;17.78;101160.63;4945973;28;98931;-75
2021/06/28 12:10:38;;;;;;;;;;;;;;;36.29;18.60;101165.31;4953670;28;99280;-75
2021/06/28 12:13:05;;;;;;;;;;;;;;;36.69;18.08;101150.44;4954728;28;96743;-76
2021/06/28 12:15:31;;;;;;;;;;;;;;;35.64;19.03;101155.91;4949209;28;96986;-74
2021/06/28 12:17:58;;;;;;;;;;;;;;;35.87;18.72;101150.88;4951007;28;98797;-73
2021/06/28 12:20:26;;;;;;;;;;;;;;;35.43;19.48;101143.16;4947715;28;98338;-74
2021/06/28 12:22:52;;;;;;;;;;;;;;;35.05;19.38;101151.00;4951312;28;96990;-74
2021/06/28 12:25:22;;;;;;;;;;;;;;;34.90;19.79;101147.56;4951361;28;98043;-75
2021/06/28 12:27:49;;;;;;;;;;;;;;;35.44;19.98;101153.09;4950490;28;99531;-75
2021/06/28 12:30:17;;;;;;;;;;;;;;;35.62;18.62;101151.66;4947326;28;97070;-74
2021/06/28 12:32:44;;;;;;;;;;;;;;;35.70;18.51;101157.84;4951429;28;96817;-74
2021/06/28 12:35:12;;;;;;;;;;;;;;;35.85;18.63;101146.63;4945911;28;96912;-73
2021/06/28 12:37:41;;;;;;;;;;;;;;;36.00;18.78;101154.69;4955255;28;97833;-74